Time;durP1;ratioP1;P1;durP2;ratioP2;P2;SDS_P1;SDS_P2;PMS_P1;PMS_P2;Temp;Humidity;BMP_temperature;BMP_pressure;BME280_temperature;BME280_humidity;BME280_pressure;Samples;Min_cycle;Max_cycle;Signal;HPM_P1;HPM_P2
2022/08/16 00:00:10;;;;;;;23.70;9.45;;;;;;;20.60;58.19;100196.25;4887589;23;20061;-91
2022/08/16 01:11:51;;;;;;;31.65;9.60;;;;;;;19.93;61.89;100223.81;1183036;23;20345;31
2022/08/16 01:17:30;;;;;;;22.40;9.00;;;;;;;19.53;61.53;100168.34;4820799;29;20045;-91
2022/08/16 01:20:39;;;;;;;24.85;8.95;;;;;;;20.13;61.06;100263.59;4815457;29;20118;-94
2022/08/16 01:24:05;;;;;;;26.15;9.00;;;;;;;19.44;61.38;100155.44;4817756;29;20043;-95
2022/08/16 01:28:51;;;;;;;22.63;8.80;;;;;;;19.69;59.78;100208.06;4803993;29;20063;-96
2022/08/16 01:31:39;;;;;;;23.15;8.40;;;;;;;20.09;60.55;100271.03;4762477;30;20051;-92
2022/08/16 01:34:38;;;;;;;;;;;;;;;;;;;;;
2022/08/16 01:38:21;;;;;;;;;;;;;;;;;;;;;
2022/08/16 01:41:45;;;;;;;29.30;8.32;;;;;;;19.92;60.53;100272.94;5140988;23;20048;-93
2022/08/16 01:47:19;;;;;;;17.67;9.02;;;;;;;19.30;61.14;100181.94;4942199;23;20630;-92
2022/08/16 01:49:57;;;;;;;16.02;8.52;;;;;;;19.26;61.38;100176.28;4856570;23;20076;-91
2022/08/16 01:56:03;;;;;;;21.93;8.13;;;;;;;19.12;60.61;100165.56;5235801;23;20969;-92
2022/08/16 02:07:47;;;;;;;15.25;7.93;;;;;;;19.70;60.39;100248.50;4795302;29;20080;-91
2022/08/16 02:10:47;;;;;;;16.02;8.05;;;;;;;19.79;60.74;100273.34;4787789;29;20538;-95
2022/08/16 02:14:02;;;;;;;24.60;8.27;;;;;;;19.80;60.10;100270.25;4803374;29;20493;-94
2022/08/16 02:34:01;;;;;;;18.40;8.82;;;;;;;19.68;60.00;100275.81;4887662;23;20053;-92
2022/08/16 02:40:15;;;;;;;14.88;7.95;;;;;;;19.33;60.07;100228.34;4917088;23;20057;-93
2022/08/16 02:57:18;;;;;;;17.00;7.95;;;;;;;19.12;60.28;100203.56;4810987;29;20061;-96
2022/08/16 03:07:58;;;;;;;16.80;8.40;;;;;;;19.53;60.78;100293.13;4863300;29;20056;-94
2022/08/16 03:10:28;;;;;;;14.77;7.35;;;;;;;18.91;60.23;100193.44;4825619;29;20117;-95
2022/08/16 03:13:05;;;;;;;26.27;9.00;;;;;;;19.04;60.42;100212.81;4868989;23;20054;-96
2022/08/16 03:16:24;;;;;;;18.83;8.77;;;;;;;19.32;60.28;100262.78;4806739;29;20437;-91
2022/08/16 03:23:23;;;;;;;;;;;;;;;;;;;;;
2022/08/16 03:30:03;;;;;;;17.25;8.43;;;;;;;19.61;60.50;100304.13;4867100;29;20423;-96
2022/08/16 03:33:11;;;;;;;22.65;8.93;;;;;;;19.23;61.03;100238.75;4866645;23;20120;-93
2022/08/16 03:36:52;;;;;;;20.45;8.43;;;;;;;19.36;60.78;100263.72;4869996;29;20052;-96
2022/08/16 03:44:24;;;;;;;20.75;8.90;;;;;;;19.67;61.40;100307.50;4845941;29;20174;-93
2022/08/16 03:47:12;;;;;;;25.25;8.13;;;;;;;19.10;61.28;100205.88;4823213;29;20053;-92
2022/08/16 03:50:52;;;;;;;;;;;;;;;;;;;;;
2022/08/16 04:18:43;;;;;;;125.55;13.25;;;;;;;20.25;60.45;100301.63;4938948;23;20057;-94
2022/08/16 04:43:09;;;;;;;33.40;9.68;;;;;;;20.77;59.86;100323.72;5115894;23;20060;-96
2022/08/16 04:48:37;;;;;;;60.80;9.35;;;;;;;20.45;59.48;100256.16;4882992;29;20057;-95
2022/08/16 04:51:40;;;;;;;30.40;8.48;;;;;;;20.29;58.82;100219.22;4874059;29;20149;-95
2022/08/16 04:54:07;;;;;;;23.90;8.45;;;;;;;20.51;59.27;100251.19;4839379;29;20401;-94
2022/08/16 04:56:34;;;;;;;34.70;8.77;;;;;;;20.46;59.29;100231.97;4857584;23;20064;-91
2022/08/16 04:59:09;;;;;;;32.83;8.63;;;;;;;21.14;59.48;100322.63;4868854;23;20136;-90
2022/08/16 05:01:36;;;;;;;38.58;8.90;;;;;;;21.24;59.21;100319.31;4847644;29;20033;-90
2022/08/16 05:04:16;;;;;;;45.35;8.10;;;;;;;21.05;58.27;100281.91;4848481;29;20046;-93
2022/08/16 05:07:45;;;;;;;29.17;8.43;;;;;;;21.39;57.40;100314.91;4850516;29;20052;-96
2022/08/16 05:11:09;;;;;;;31.10;8.85;;;;;;;21.48;58.35;100318.31;4837872;29;20073;-93
2022/08/16 05:14:40;;;;;;;29.95;8.52;;;;;;;21.58;57.83;100318.56;4840794;29;20049;-91
2022/08/16 05:17:32;;;;;;;31.33;8.35;;;;;;;21.70;57.45;100309.28;4842919;29;20043;-93
2022/08/16 05:20:14;;;;;;;18.42;8.52;;;;;;;21.61;57.46;100280.84;4850847;29;20048;-91
2022/08/16 05:22:44;;;;;;;23.48;8.35;;;;;;;21.67;56.11;100276.63;4846749;29;20062;-89
2022/08/16 05:25:48;;;;;;;34.65;9.93;;;;;;;21.69;56.37;100268.72;4843926;29;20133;-90
2022/08/16 05:28:18;;;;;;;47.03;9.18;;;;;;;21.67;56.29;100250.78;4841237;29;20144;-90
2022/08/16 05:31:05;;;;;;;27.98;9.25;;;;;;;22.01;56.49;100299.19;4829792;29;20073;-89
2022/08/16 05:33:33;;;;;;;37.85;9.50;;;;;;;21.75;56.50;100242.19;4861789;29;20038;-91
2022/08/16 05:36:17;;;;;;;56.63;9.55;;;;;;;22.05;56.03;100289.75;4859278;29;20093;-90
2022/08/16 05:39:14;;;;;;;42.40;8.52;;;;;;;22.17;56.03;100321.44;4839939;29;20071;-91
2022/08/16 05:49:29;;;;;;;27.85;8.15;;;;;;;22.43;55.83;100316.00;4772881;30;20063;-91
2022/08/16 05:52:46;;;;;;;31.52;8.80;;;;;;;22.57;57.03;100321.03;4739228;30;20515;-90
2022/08/16 05:57:45;;;;;;;22.35;8.57;;;;;;;22.45;55.21;100291.34;4756915;30;19933;-92
2022/08/16 06:00:15;;;;;;;30.73;9.27;;;;;;;22.46;54.92;100283.81;4771992;23;20059;31
2022/08/16 06:02:45;;;;;;;77.38;11.02;;;;;;;22.31;55.32;100238.13;4811873;29;20563;-92
2022/08/16 06:05:59;;;;;;;27.60;8.10;;;;;;;22.91;55.07;100315.66;4831420;29;20061;-91
2022/08/16 06:09:15;;;;;;;32.42;8.10;;;;;;;22.98;54.76;100313.03;4841169;29;20464;-89
2022/08/16 06:36:14;;;;;;;24.20;7.10;;;;;;;23.90;51.50;100287.69;4789430;27;10893669;-96
2022/08/16 06:38:44;;;;;;;25.05;7.63;;;;;;;23.51;51.13;100215.38;5048182;28;20047;-87
2022/08/16 06:41:19;;;;;;;45.45;8.90;;;;;;;24.03;51.68;100283.47;5047754;28;20049;-86
2022/08/16 06:43:46;;;;;;;;;;;;;;;24.25;51.26;100304.06;5067470;28;20076;-89
2022/08/16 06:46:45;;;;;;;26.25;9.00;;;;;;;24.12;49.67;100267.22;5049893;28;19943;-90
2022/08/16 06:49:16;;;;;;;16.58;5.85;;;;;;;24.26;50.16;100282.53;5051636;28;20048;-94
2022/08/16 06:55:10;;;;;;;32.00;6.72;;;;;;;23.96;47.50;100213.53;5034527;28;20069;-88
2022/08/16 06:57:41;;;;;;;14.30;5.65;;;;;;;24.21;47.29;100238.19;5036946;28;20072;-93
2022/08/16 07:00:12;;;;;;;12.13;5.55;;;;;;;24.25;48.49;100239.00;5013953;28;20165;-90
2022/08/16 07:03:25;;;;;;;11.13;5.63;;;;;;;24.27;47.31;100231.03;5040423;28;20052;-90
2022/08/16 07:05:52;;;;;;;21.52;5.60;;;;;;;24.81;46.72;100293.91;4999171;28;20038;-89
2022/08/16 07:11:50;;;;;;;30.25;5.85;;;;;;;24.58;46.45;100244.56;5008046;28;20042;-89
2022/08/16 07:14:25;;;;;;;;;;;;;;;24.99;47.45;100294.03;4990501;28;20074;-86
2022/08/16 07:17:21;;;;;;;16.35;4.93;;;;;;;25.08;46.41;100294.53;5012647;28;20417;-88
2022/08/16 07:20:11;;;;;;;9.70;5.07;;;;;;;24.93;46.95;100265.63;5016070;28;20040;-88
2022/08/16 07:22:54;;;;;;;13.43;5.55;;;;;;;25.04;46.26;100262.94;5080650;22;20535;-89
2022/08/16 07:25:46;;;;;;;17.67;5.40;;;;;;;24.81;46.24;100219.19;5094594;22;20056;-91
2022/08/16 07:28:40;;;;;;;13.35;5.30;;;;;;;25.35;46.17;100283.16;5074951;28;20036;-90
2022/08/16 07:31:06;;;;;;;20.17;5.85;;;;;;;25.05;47.25;100248.53;5055813;28;20041;-90
2022/08/16 07:33:41;;;;;;;22.48;5.30;;;;;;;25.27;45.78;100271.13;5178828;23;20052;-89
2022/08/16 07:36:08;;;;;;;12.43;5.05;;;;;;;25.08;45.09;100242.16;5065456;28;20124;-88
2022/08/16 07:38:40;;;;;;;18.30;6.07;;;;;;;25.49;46.06;100295.22;5059652;28;20162;-87
2022/08/16 07:41:07;;;;;;;23.67;5.30;;;;;;;25.46;44.39;100287.63;5089219;28;20036;-88
2022/08/16 07:43:33;;;;;;;17.80;6.05;;;;;;;25.61;44.15;100293.31;5060643;28;20036;-89
2022/08/16 07:46:04;;;;;;;16.25;5.15;;;;;;;25.65;44.78;100286.53;5032268;28;20047;-86
2022/08/16 07:48:36;;;;;;;15.77;5.25;;;;;;;25.61;46.20;100268.13;5059344;28;20041;-87
2022/08/16 07:51:02;;;;;;;18.17;5.05;;;;;;;25.52;45.29;100254.44;5088717;28;20097;-88
2022/08/16 07:54:01;;;;;;;20.90;4.93;;;;;;;25.90;44.15;100291.50;5062074;28;20044;-88
2022/08/16 07:56:28;;;;;;;12.82;4.45;;;;;;;25.81;43.26;100275.03;5050162;28;20051;-88
2022/08/16 07:59:00;;;;;;;22.25;6.43;;;;;;;25.61;44.02;100220.50;5057727;28;20034;-88
2022/08/16 08:01:39;;;;;;;13.68;4.93;;;;;;;25.81;44.00;100238.63;5042237;28;20037;-90
2022/08/16 08:08:51;;;;;;;8.02;4.53;;;;;;;26.18;42.40;100291.59;4997135;28;20046;-88
2022/08/16 08:11:45;;;;;;;29.15;5.57;;;;;;;26.29;43.97;100294.44;5013000;28;20103;-86
2022/08/16 08:14:14;;;;;;;18.20;4.93;;;;;;;25.78;43.54;100200.97;4966700;28;20034;-88
2022/08/16 08:17:09;;;;;;;13.63;5.00;;;;;;;26.35;43.30;100286.44;5013926;28;20048;-87
2022/08/16 08:19:36;;;;;;;23.30;5.05;;;;;;;26.36;42.89;100285.25;4998381;28;20042;-86
2022/08/16 08:22:52;;;;;;;12.50;4.90;;;;;;;26.41;43.13;100287.66;5005728;28;20253;-88
2022/08/16 08:25:20;;;;;;;13.15;5.03;;;;;;;26.18;42.92;100246.75;4999481;28;20066;-88
2022/08/16 08:28:00;;;;;;;14.52;5.07;;;;;;;26.00;41.49;100215.88;5011009;28;20523;-87
2022/08/16 08:30:26;;;;;;;49.78;7.35;;;;;;;26.24;41.54;100244.38;5008572;28;20042;-88
2022/08/16 08:32:54;;;;;;;19.40;7.38;;;;;;;26.51;41.28;100284.09;5000807;28;20055;-88
2022/08/16 08:35:47;;;;;;;22.55;5.47;;;;;;;26.50;40.24;100287.31;5012510;28;20550;-87
2022/08/16 08:38:17;;;;;;;16.33;5.20;;;;;;;26.06;41.73;100207.91;5013913;28;20053;-88
2022/08/16 08:40:48;;;;;;;20.27;5.72;;;;;;;26.37;42.01;100242.00;4979670;28;20505;-88
2022/08/16 08:43:19;;;;;;;40.53;5.78;;;;;;;26.19;41.76;100217.53;5038971;22;20048;-89
2022/08/16 08:45:54;;;;;;;15.90;5.93;;;;;;;26.52;41.40;100254.03;5043539;28;20047;-91
2022/08/16 08:48:31;;;;;;;19.63;6.30;;;;;;;26.43;41.24;100237.59;5059295;28;20047;-93
2022/08/16 08:51:08;;;;;;;24.27;5.53;;;;;;;26.33;42.74;100213.94;5043173;28;20093;-90
2022/08/16 08:53:59;;;;;;;15.70;5.18;;;;;;;26.48;42.07;100232.41;5063400;28;20055;-87
2022/08/16 08:57:19;;;;;;;12.18;4.93;;;;;;;26.76;42.14;100267.31;5095842;28;20408;-88
2022/08/16 09:00:49;;;;;;;21.15;4.90;;;;;;;26.70;41.54;100269.69;5063712;28;20044;-89
2022/08/16 09:03:16;;;;;;;27.58;5.45;;;;;;;26.29;42.91;100204.75;5041780;28;20037;-91
2022/08/16 09:06:09;;;;;;;9.55;4.95;;;;;;;26.81;41.52;100269.69;5042587;22;20074;-95
2022/08/16 09:09:05;;;;;;;32.97;6.78;;;;;;;26.63;42.51;100232.44;4994278;28;20526;-90
2022/08/16 09:11:41;;;;;;;27.58;6.32;;;;;;;26.46;41.05;100209.56;5015178;28;20049;-90
2022/08/16 09:14:12;;;;;;;12.77;4.97;;;;;;;26.87;40.68;100270.91;4984769;28;20056;-95
2022/08/16 09:16:39;;;;;;;16.70;5.18;;;;;;;26.78;40.45;100250.06;5007408;28;20042;-91
2022/08/16 09:19:14;;;;;;;81.97;7.47;;;;;;;26.67;40.58;100224.81;5015666;28;20070;-88
2022/08/16 09:21:40;;;;;;;26.58;5.60;;;;;;;26.61;39.95;100199.16;4998061;28;20045;-94
2022/08/16 09:24:12;;;;;;;20.38;6.75;;;;;;;26.94;40.53;100248.44;4982557;28;20042;-91
2022/08/16 09:27:08;;;;;;;22.25;6.10;;;;;;;27.23;40.05;100273.72;5030493;23;20076;-89
2022/08/16 09:30:05;;;;;;;38.85;7.78;;;;;;;26.95;39.03;100215.56;5048272;28;20052;-89
2022/08/16 09:32:31;;;;;;;30.80;6.38;;;;;;;26.81;40.18;100199.56;5036412;28;20037;-90
2022/08/16 09:35:59;;;;;;;12.65;5.05;;;;;;;27.36;39.93;100262.88;5036209;28;20049;-91
2022/08/16 09:38:29;;;;;;;16.88;5.20;;;;;;;27.05;40.40;100197.13;5036213;28;20459;-89
2022/08/16 09:41:14;;;;;;;18.25;5.38;;;;;;;27.21;39.12;100216.38;5037046;28;20043;-86
2022/08/16 09:43:41;;;;;;;31.10;5.80;;;;;;;27.40;40.30;100236.38;5052999;28;20048;-88
2022/08/16 09:46:09;;;;;;;18.38;4.80;;;;;;;27.25;39.21;100203.94;5044201;23;20073;-89
2022/08/16 09:48:40;;;;;;;48.92;7.03;;;;;;;27.44;38.10;100215.91;4993790;28;20582;-89
2022/08/16 09:51:15;;;;;;;23.42;5.70;;;;;;;27.34;38.54;100179.03;4982835;28;20136;-89
2022/08/16 09:53:41;;;;;;;28.23;5.60;;;;;;;27.60;39.29;100222.69;5017440;28;20053;-86
2022/08/16 09:56:44;;;;;;;27.45;6.18;;;;;;;27.45;38.17;100201.47;5005348;28;20053;-87
2022/08/16 09:59:36;;;;;;;28.80;6.35;;;;;;;27.77;37.42;100260.38;4992630;28;20511;-89
2022/08/16 10:02:05;;;;;;;30.63;6.40;;;;;;;27.76;37.53;100267.19;4993685;28;20062;-89
2022/08/16 10:04:53;;;;;;;41.50;7.38;;;;;;;27.77;38.57;100251.94;4993918;28;20050;-93
2022/08/16 10:07:22;;;;;;;31.17;6.80;;;;;;;27.78;39.07;100256.38;4960158;28;20046;-92
2022/08/16 10:10:15;;;;;;;22.45;5.90;;;;;;;27.89;38.13;100256.31;5008282;28;20139;-94
2022/08/16 10:13:33;;;;;;;24.45;7.03;;;;;;;27.99;38.92;100252.66;5041082;28;20040;-92
2022/08/16 10:16:48;;;;;;;27.58;7.15;;;;;;;28.09;38.68;100251.00;5055345;28;20139;-95
2022/08/16 10:19:18;;;;;;;19.67;5.40;;;;;;;27.97;38.23;100223.34;5027736;28;20413;-89
2022/08/16 10:22:26;;;;;;;35.38;6.88;;;;;;;28.13;35.85;100257.41;5052670;28;20044;-87
2022/08/16 10:24:53;;;;;;;8.93;5.90;;;;;;;27.79;36.76;100186.91;5032850;28;20044;-91
2022/08/16 10:27:19;;;;;;;13.77;6.28;;;;;;;27.84;37.08;100181.66;5053378;28;20263;-92
2022/08/16 10:29:46;;;;;;;;;;;;;;;28.29;36.77;100259.72;5020817;28;20037;-87
2022/08/16 10:32:13;;;;;;;22.92;6.00;;;;;;;28.10;36.61;100228.09;5037530;28;20015;-93
2022/08/16 10:34:44;;;;;;;20.23;5.95;;;;;;;27.72;37.51;100165.25;5022433;28;20033;-92
2022/08/16 10:38:07;;;;;;;19.10;6.65;;;;;;;28.22;37.41;100248.53;5010497;28;20033;-92
2022/08/16 10:40:35;;;;;;;13.25;6.18;;;;;;;28.14;37.57;100211.19;5010743;28;20099;-93
2022/08/16 10:43:01;;;;;;;15.43;6.90;;;;;;;27.94;38.07;100162.34;5032138;28;20394;-92
2022/08/16 10:48:54;;;;;;;27.98;6.20;;;;;;;28.67;37.94;100228.94;5062050;23;20531;-90
2022/08/16 10:51:24;;;;;;;14.55;6.47;;;;;;;28.49;35.89;100192.50;5075563;22;20147;-92
2022/08/16 10:53:51;;;;;;;176.00;10.82;;;;;;;28.71;35.79;100227.72;5054425;28;20513;-92
2022/08/16 10:56:18;;;;;;;53.90;7.72;;;;;;;28.44;35.45;100198.56;5055165;28;20528;-90
2022/08/16 10:58:56;;;;;;;20.33;6.38;;;;;;;28.29;35.70;100186.59;5031892;28;20040;-90
2022/08/16 11:01:35;;;;;;;17.73;6.85;;;;;;;28.18;36.15;100177.44;5050941;28;20489;-94
2022/08/16 11:07:50;;;;;;;33.40;7.05;;;;;;;27.71;36.85;100155.19;5095363;28;20051;-91
2022/08/16 11:11:21;;;;;;;35.53;7.03;;;;;;;28.13;37.35;100220.06;5059137;22;20045;-96
2022/08/16 11:16:55;;;;;;;70.07;8.52;;;;;;;28.06;37.21;100147.81;5046103;23;20062;-87
2022/08/16 11:19:29;;;;;;;20.23;6.65;;;;;;;28.28;37.52;100146.44;5013326;28;20056;-91
2022/08/16 11:21:59;;;;;;;18.80;6.05;;;;;;;28.41;37.32;100143.13;5002966;28;20173;-88
2022/08/16 11:24:39;;;;;;;46.17;7.72;;;;;;;28.62;36.55;100145.00;5017323;28;20111;-93
2022/08/16 11:27:20;;;;;;;18.77;5.93;;;;;;;29.06;35.60;100194.81;5009690;28;20042;-88
2022/08/16 11:30:29;;;;;;;20.50;6.28;;;;;;;29.14;35.58;100202.00;4996860;28;20557;-89
2022/08/16 11:33:02;;;;;;;19.08;7.22;;;;;;;28.91;35.79;100177.28;4983108;28;20034;-89
2022/08/16 11:35:42;;;;;;;21.08;6.63;;;;;;;28.75;36.32;100129.97;5004797;22;20042;-91
2022/08/16 11:38:24;;;;;;;31.70;6.65;;;;;;;28.81;35.45;100127.50;4969256;28;20037;-89
2022/08/16 11:41:56;;;;;;;29.67;7.47;;;;;;;29.20;35.89;100197.47;5002121;28;20059;-92
2022/08/16 11:44:26;;;;;;;14.30;5.70;;;;;;;29.19;36.38;100181.03;5036772;28;20048;-94
2022/08/16 11:51:37;;;;;;;27.10;6.07;;;;;;;29.54;33.73;100184.63;5011800;28;20427;-92
2022/08/16 11:54:29;;;;;;;18.83;5.90;;;;;;;29.65;34.99;100183.31;5000037;28;20050;-92
2022/08/16 11:57:07;;;;;;;19.45;7.03;;;;;;;29.25;33.61;100109.75;5007548;28;20132;-88
2022/08/16 12:03:35;;;;;;;;;;;;;;;29.92;34.50;100174.88;5022129;23;20042;-89
2022/08/16 12:06:12;;;;;;;21.13;7.07;;;;;;;29.64;34.43;100122.56;5030362;28;19959;-88
2022/08/16 12:09:04;;;;;;;32.45;7.57;;;;;;;30.01;34.28;100182.84;5021518;28;20128;-88
2022/08/16 12:17:28;;;;;;;;;;;;;;;;;;;;;
2022/08/16 12:27:20;;;;;;;24.83;6.68;;;;;;;29.55;34.21;100156.03;5289581;23;20145;-91
2022/08/16 12:29:59;;;;;;;32.97;8.52;;;;;;;29.51;34.71;100135.56;4940788;28;20067;-92
2022/08/16 12:36:54;;;;;;;19.15;6.95;;;;;;;29.79;34.54;100150.53;4950508;28;20134;-94
2022/08/16 12:42:41;;;;;;;;;;;;;;;30.01;34.89;100151.81;5026993;22;20053;-95
2022/08/16 12:45:17;;;;;;;27.10;6.80;;;;;;;29.96;34.82;100129.72;5010217;22;20407;-91
2022/08/16 12:50:57;;;;;;;13.60;6.45;;;;;;;29.76;34.07;100064.00;4980838;28;19926;-92
2022/08/16 12:53:30;;;;;;;57.13;9.15;;;;;;;30.02;33.70;100091.38;4993234;23;20058;-93
2022/08/16 13:00:44;;;;;;;30.23;7.25;;;;;;;30.30;33.25;100135.28;4944020;29;20039;-95
2022/08/16 13:17:27;;;;;;;49.55;9.05;;;;;;;30.59;32.59;100132.75;4996306;28;20053;-95
2022/08/16 13:24:12;;;;;;;;;;;;;;;;;;;;;
2022/08/16 13:30:54;;;;;;;40.17;9.05;;;;;;;30.03;35.05;100115.50;5074572;23;20057;-92
2022/08/16 13:36:38;;;;;;;45.00;9.50;;;;;;;29.59;34.60;100097.63;5070188;22;20108;-94
2022/08/16 13:39:09;;;;;;;36.40;8.50;;;;;;;28.94;36.70;100054.56;5019537;23;20347;-93
2022/08/16 13:45:21;;;;;;;19.45;8.00;;;;;;;29.05;35.92;100074.19;4994314;28;20541;-94
2022/08/16 13:48:13;;;;;;;24.23;8.63;;;;;;;29.39;34.96;100105.94;4998301;28;20045;-91
2022/08/16 13:51:01;;;;;;;28.30;7.95;;;;;;;29.26;35.83;100057.03;4955422;28;20043;-90
2022/08/16 13:53:41;;;;;;;17.77;7.57;;;;;;;29.58;35.24;100087.56;4964972;23;20073;-91
2022/08/16 13:56:10;;;;;;;27.00;10.27;;;;;;;29.52;36.01;100057.47;4944675;28;20054;-91
2022/08/16 13:59:02;;;;;;;;;;;;;;;;;;;;;
2022/08/16 14:09:35;;;;;;;34.55;9.48;;;;;;;29.63;33.53;100053.31;4976801;28;20085;-92
2022/08/16 14:18:58;;;;;;;29.42;9.75;;;;;;;29.81;36.38;100083.25;5100906;22;20077;-87
2022/08/16 14:21:59;;;;;;;30.63;10.20;;;;;;;29.79;34.47;100083.66;4961286;28;20042;-87
2022/08/16 14:24:26;;;;;;;35.40;10.68;;;;;;;29.75;35.31;100073.69;4959399;28;20074;-87
2022/08/16 14:26:53;;;;;;;27.00;10.90;;;;;;;29.75;34.84;100073.69;4959444;28;20114;-87
2022/08/16 14:29:26;;;;;;;34.13;11.35;;;;;;;29.42;34.22;100017.78;4943518;28;20077;-87
2022/08/16 14:32:19;;;;;;;30.90;11.70;;;;;;;29.75;35.30;100068.03;4975948;28;20042;-86
2022/08/16 14:34:45;;;;;;;31.10;11.13;;;;;;;29.76;35.25;100066.81;4946066;28;20065;-88
2022/08/16 14:37:12;;;;;;;57.70;14.40;;;;;;;29.74;35.84;100055.97;4944201;28;20042;-91
2022/08/16 14:40:13;;;;;;;24.60;11.05;;;;;;;29.44;35.04;100011.72;4941173;28;20043;-88
2022/08/16 14:42:42;;;;;;;24.67;10.13;;;;;;;29.66;35.42;100051.66;4946885;28;20050;-88
2022/08/16 14:45:13;;;;;;;22.73;10.13;;;;;;;29.79;34.64;100075.22;4989189;23;20085;-89
2022/08/16 14:48:42;;;;;;;28.55;10.63;;;;;;;29.32;35.80;100003.84;4989279;28;20122;-93
2022/08/16 14:51:19;;;;;;;29.33;10.90;;;;;;;29.84;36.69;100080.38;4972138;28;20196;-90
2022/08/16 14:53:48;;;;;;;26.35;10.50;;;;;;;29.73;36.75;100063.66;4965618;28;20575;-91
2022/08/16 14:56:15;;;;;;;35.17;11.43;;;;;;;29.70;36.77;100046.75;4990469;28;20066;-90
2022/08/16 14:58:41;;;;;;;;;;;;;;;29.99;36.25;100080.94;5003523;23;20049;-89
2022/08/16 15:04:44;;;;;;;39.17;10.70;;;;;;;29.58;35.30;100025.59;5026415;22;20064;-90
2022/08/16 15:07:36;;;;;;;38.72;10.30;;;;;;;29.79;37.58;100077.25;4963291;28;20041;-89
2022/08/16 15:10:07;;;;;;;35.60;10.70;;;;;;;29.58;37.56;100052.97;4971295;28;20053;-90
2022/08/16 15:12:37;;;;;;;23.77;11.63;;;;;;;29.59;37.95;100054.56;5002646;28;20531;-88
2022/08/16 15:15:25;;;;;;;38.25;12.68;;;;;;;29.55;37.60;100082.78;4973554;28;20144;-90
2022/08/16 15:17:55;;;;;;;30.02;12.23;;;;;;;29.42;37.57;100060.03;4969391;28;20069;-91
2022/08/16 15:20:32;;;;;;;32.50;12.35;;;;;;;29.26;37.89;100065.47;4965025;28;20034;-88
2022/08/16 15:23:48;;;;;;;36.00;11.88;;;;;;;29.08;37.82;100074.16;5005806;23;20055;-91
2022/08/16 15:26:15;;;;;;;32.72;12.88;;;;;;;28.86;37.96;100064.34;5020545;28;20395;-92
2022/08/16 15:28:44;;;;;;;;;;;;;;;28.74;39.41;100072.13;5040056;28;20037;-92
2022/08/16 15:31:36;;;;;;;35.95;14.57;;;;;;;28.60;39.02;100063.81;5065856;28;19956;-90
2022/08/16 15:34:43;;;;;;;37.72;13.70;;;;;;;28.18;39.20;100020.81;5028737;28;20037;-94
2022/08/16 15:37:15;;;;;;;31.60;13.95;;;;;;;28.33;39.55;100043.97;5039421;28;20506;-90
2022/08/16 15:39:44;;;;;;;30.23;12.73;;;;;;;28.20;39.25;100040.84;5055787;28;20029;-90
2022/08/16 15:42:14;;;;;;;25.60;13.20;;;;;;;28.32;40.24;100060.03;5039636;28;20135;-90
2022/08/16 15:44:43;;;;;;;30.92;11.52;;;;;;;28.02;39.71;100034.59;5025559;28;20055;-90
2022/08/16 15:47:16;;;;;;;28.98;11.40;;;;;;;28.12;40.15;100063.84;5052167;28;20100;-87
2022/08/16 15:49:47;;;;;;;33.83;11.68;;;;;;;27.95;41.20;100059.97;5061255;28;20108;-89
2022/08/16 15:52:37;;;;;;;34.55;11.25;;;;;;;27.83;40.33;100069.66;5056307;28;20047;-92
2022/08/16 15:55:09;;;;;;;29.95;10.73;;;;;;;27.43;41.41;100032.59;5035595;28;20041;-89
2022/08/16 15:57:39;;;;;;;53.38;12.20;;;;;;;27.56;42.09;100066.63;5018931;28;20125;-88
2022/08/16 16:00:08;;;;;;;86.40;13.05;;;;;;;27.42;42.28;100056.28;5036532;28;20041;-88
2022/08/16 16:02:40;;;;;;;48.72;13.43;;;;;;;27.32;41.70;100066.34;5046827;28;20124;-87
2022/08/16 16:05:08;;;;;;;46.63;12.95;;;;;;;27.13;41.84;100050.00;5018792;28;20581;-87
2022/08/16 16:07:37;;;;;;;49.65;13.70;;;;;;;27.07;42.33;100062.81;5034896;28;20492;-87
2022/08/16 16:10:08;;;;;;;58.03;13.73;;;;;;;26.81;42.54;100030.44;5020582;28;20041;-96
2022/08/16 16:13:04;;;;;;;44.33;14.07;;;;;;;26.93;42.76;100064.47;5042175;28;20449;-87
2022/08/16 16:15:35;;;;;;;65.57;14.70;;;;;;;26.84;43.63;100058.47;5058281;28;20064;-88
2022/08/16 16:18:03;;;;;;;82.47;15.77;;;;;;;26.69;43.00;100068.16;5055592;28;20418;-88
2022/08/16 16:20:31;;;;;;;80.70;16.40;;;;;;;26.61;43.82;100061.75;5021817;28;20033;-86
2022/08/16 16:23:03;;;;;;;64.15;14.57;;;;;;;26.38;43.39;100041.72;5056122;28;20069;-93
2022/08/16 16:25:31;;;;;;;75.20;14.63;;;;;;;26.37;43.71;100046.53;5058320;28;20080;-87
2022/08/16 16:27:59;;;;;;;123.53;16.42;;;;;;;26.00;43.35;100000.13;5038226;28;20503;-87
2022/08/16 16:30:27;;;;;;;163.15;17.30;;;;;;;26.38;45.07;100064.94;5051772;28;20060;-88
2022/08/16 16:32:56;;;;;;;61.10;14.65;;;;;;;26.18;43.95;100041.34;5056159;28;20045;-90
2022/08/16 16:35:25;;;;;;;114.53;17.70;;;;;;;26.14;45.23;100052.56;5039131;28;20041;-89
2022/08/16 16:37:54;;;;;;;107.95;17.35;;;;;;;25.98;44.98;100040.97;5038953;28;20044;-88
2022/08/16 16:40:23;;;;;;;136.50;18.15;;;;;;;26.00;45.80;100056.16;5060264;28;20033;-94
2022/08/16 16:42:50;;;;;;;107.40;17.55;;;;;;;25.75;45.44;100028.09;5048557;28;20040;-89
2022/08/16 16:48:53;;;;;;;51.15;15.73;;;;;;;25.83;46.11;100070.16;4993965;23;20106;-91
2022/08/16 16:55:22;;;;;;;78.32;17.20;;;;;;;25.70;46.89;100081.72;5023089;28;20117;-91
2022/08/16 17:09:39;;;;;;;88.57;34.67;;;;;;;25.25;46.21;100072.78;5171354;23;20050;-92
2022/08/16 17:12:11;;;;;;;94.90;32.25;;;;;;;25.23;46.89;100086.38;5017576;28;20533;-88
2022/08/16 17:14:46;;;;;;;111.97;35.85;;;;;;;24.96;47.77;100046.66;4982461;28;20049;-92
2022/08/16 17:17:18;;;;;;;99.68;35.58;;;;;;;25.14;47.38;100085.94;4985308;28;20045;-90
2022/08/16 17:19:44;;;;;;;64.40;25.73;;;;;;;24.93;46.54;100060.63;4970999;28;20046;-91
2022/08/16 17:22:14;;;;;;;88.30;30.05;;;;;;;25.07;47.11;100092.28;5001995;28;20144;-93
2022/08/16 17:24:49;;;;;;;70.30;26.15;;;;;;;25.03;47.43;100083.06;4969212;28;20069;-91
2022/08/16 17:27:15;;;;;;;68.10;26.85;;;;;;;24.85;47.29;100073.78;4965649;28;20079;-91
2022/08/16 17:29:49;;;;;;;63.80;24.15;;;;;;;24.91;48.03;100086.19;5013256;28;20058;-94
2022/08/16 17:32:17;;;;;;;52.42;22.88;;;;;;;24.67;47.63;100042.09;4980621;28;20149;-91
2022/08/16 17:34:45;;;;;;;37.53;19.33;;;;;;;24.82;47.75;100074.56;4980075;28;20081;-92
2022/08/16 17:37:13;;;;;;;37.80;19.92;;;;;;;24.68;47.04;100043.72;4980768;28;20038;-92
2022/08/16 17:39:40;;;;;;;54.65;20.92;;;;;;;24.93;47.56;100081.00;4936190;29;20051;-89
2022/08/16 17:42:14;;;;;;;54.60;21.70;;;;;;;24.67;47.64;100051.31;4936361;28;20043;-88
2022/08/16 17:44:42;;;;;;;52.20;21.17;;;;;;;24.75;47.59;100066.13;4936524;29;20148;-89
2022/08/16 17:47:08;;;;;;;63.88;22.75;;;;;;;24.69;48.15;100071.28;4935758;29;20042;-89
2022/08/16 17:49:36;;;;;;;43.45;21.88;;;;;;;24.56;47.92;100054.03;4936449;29;20134;-90
2022/08/16 17:52:04;;;;;;;54.88;23.30;;;;;;;24.25;49.15;100021.06;4938193;28;20039;-91
2022/08/16 17:54:30;;;;;;;46.63;23.40;;;;;;;24.39;48.77;100049.91;4941133;28;20043;-91
2022/08/16 17:57:00;;;;;;;;;;;;;;;24.53;48.41;100081.97;4950708;29;20035;-91
2022/08/16 17:59:28;;;;;;;72.15;24.77;;;;;;;24.49;48.94;100072.75;4920891;29;19922;-90
2022/08/16 18:01:56;;;;;;;48.75;23.38;;;;;;;24.33;49.37;100061.81;4921791;29;20054;-91
2022/08/16 18:04:24;;;;;;;53.03;21.65;;;;;;;24.16;49.22;100040.94;4938020;29;20045;-90
2022/08/16 18:06:53;;;;;;;48.13;21.88;;;;;;;24.37;49.39;100071.88;4921655;29;20131;-90
2022/08/16 18:09:21;;;;;;;47.20;21.52;;;;;;;24.22;48.89;100058.16;4967985;28;20101;-90
2022/08/16 18:11:48;;;;;;;58.28;23.65;;;;;;;24.32;49.18;100072.22;4937668;28;20035;-91
2022/08/16 18:14:17;;;;;;;44.22;23.48;;;;;;;24.36;48.76;100075.03;4938559;29;20039;-89
2022/08/16 18:16:46;;;;;;;50.72;22.52;;;;;;;24.12;48.78;100042.91;4965426;28;20043;-90
2022/08/16 18:19:13;;;;;;;39.75;19.45;;;;;;;24.19;48.69;100056.16;4936414;28;20058;-90
2022/08/16 18:24:28;;;;;;;32.50;19.17;;;;;;;24.18;48.46;100046.16;4984920;28;20058;-92